Time;durP1;ratioP1;P1;durP2;ratioP2;P2;SDS_P1;SDS_P2;PMS_P1;PMS_P2;Temp;Humidity;BMP_temperature;BMP_pressure;BME280_temperature;BME280_humidity;BME280_pressure;Samples;Min_cycle;Max_cycle;Signal;HPM_P1;HPM_P2
2024/04/21 00:00:49;;;;;;;10.70;2.53;;;5.00;99.90;;;;;;5355402;26;20235;-68
2024/04/21 00:03:14;;;;;;;13.52;2.03;;;5.00;99.90;;;;;;5334324;26;20297;-68
2024/04/21 00:05:40;;;;;;;9.63;1.90;;;5.00;99.90;;;;;;5350372;26;20251;-67
2024/04/21 00:08:06;;;;;;;8.50;1.50;;;5.10;99.90;;;;;;5345434;26;20230;-68
2024/04/21 00:10:31;;;;;;;6.07;1.17;;;5.10;99.90;;;;;;5347649;26;20266;-68
2024/04/21 00:12:57;;;;;;;4.13;1.33;;;5.00;99.90;;;;;;5340069;26;20243;-69
2024/04/21 00:15:23;;;;;;;5.10;1.10;;;4.90;99.90;;;;;;5343087;26;20234;-68
2024/04/21 00:17:48;;;;;;;3.33;1.23;;;4.70;99.90;;;;;;5343160;26;20742;-68
2024/04/21 00:20:15;;;;;;;1.42;1.10;;;4.70;99.90;;;;;;5350348;26;20316;-67
2024/04/21 00:22:40;;;;;;;5.50;1.08;;;4.60;99.90;;;;;;5346553;26;20407;-67
2024/04/21 00:25:06;;;;;;;5.13;1.42;;;4.60;99.90;;;;;;5349742;26;20306;-68
2024/04/21 00:27:32;;;;;;;4.40;1.35;;;4.50;99.90;;;;;;5347558;26;20584;-67
2024/04/21 00:29:57;;;;;;;3.03;1.05;;;4.50;99.90;;;;;;5345438;26;20257;-68
2024/04/21 00:32:23;;;;;;;2.25;1.00;;;4.50;99.90;;;;;;5351391;26;20233;-68
2024/04/21 00:34:49;;;;;;;2.80;1.05;;;4.40;99.90;;;;;;5347557;26;20749;-67
2024/04/21 00:37:14;;;;;;;4.03;1.30;;;4.40;99.90;;;;;;5351553;26;20261;-68
2024/04/21 00:39:40;;;;;;;2.35;1.08;;;4.40;99.90;;;;;;5344776;26;20233;-68
2024/04/21 00:42:06;;;;;;;2.65;1.40;;;4.40;99.90;;;;;;5347148;26;20231;-68
2024/04/21 00:44:31;;;;;;;7.22;1.23;;;4.40;99.90;;;;;;5405284;26;20281;-68
2024/04/21 00:46:57;;;;;;;3.83;1.30;;;4.40;99.90;;;;;;5405644;26;20788;-68
2024/04/21 00:49:23;;;;;;;6.10;1.40;;;4.50;99.90;;;;;;5344564;26;20230;-68
2024/04/21 00:51:49;;;;;;;5.43;1.30;;;4.50;99.90;;;;;;5342494;26;20285;-69
2024/04/21 00:54:16;;;;;;;4.40;1.10;;;4.50;99.90;;;;;;5345571;26;20234;-68
2024/04/21 00:56:41;;;;;;;6.25;1.63;;;4.60;99.90;;;;;;5342263;26;20336;-67
2024/04/21 00:59:11;;;;;;;7.35;1.13;;;4.60;99.90;;;;;;5306450;26;994340;-68
2024/04/21 01:01:37;;;;;;;3.58;1.10;;;4.60;99.90;;;;;;5348076;26;20276;-68
2024/04/21 01:04:04;;;;;;;2.53;1.05;;;4.60;99.90;;;;;;5345805;26;20274;-68
2024/04/21 01:06:29;;;;;;;2.40;0.98;;;4.70;99.90;;;;;;5344347;26;20226;-69
2024/04/21 01:08:55;;;;;;;3.80;1.30;;;4.70;99.90;;;;;;5347783;26;20280;-68
2024/04/21 01:11:22;;;;;;;2.25;1.13;;;4.70;99.90;;;;;;5342250;26;20308;-68
2024/04/21 01:13:47;;;;;;;2.47;1.00;;;4.70;99.90;;;;;;5339456;26;20770;-69
2024/04/21 01:16:13;;;;;;;4.22;1.20;;;4.70;99.90;;;;;;5343851;26;20223;-68
2024/04/21 01:18:40;;;;;;;3.70;1.10;;;4.60;99.90;;;;;;5347071;26;20348;-68
2024/04/21 01:21:06;;;;;;;6.43;1.98;;;4.60;99.90;;;;;;5340856;26;20290;-67
2024/04/21 01:23:31;;;;;;;5.60;1.80;;;4.50;99.90;;;;;;5341371;26;20237;-69
2024/04/21 01:25:57;;;;;;;7.22;1.88;;;4.50;99.90;;;;;;5372012;26;20235;-68
2024/04/21 01:28:23;;;;;;;7.05;1.88;;;4.40;99.90;;;;;;5347914;26;20229;-68
2024/04/21 01:30:48;;;;;;;4.15;1.33;;;4.40;99.90;;;;;;5346122;26;20234;-69
2024/04/21 01:33:14;;;;;;;3.55;1.30;;;4.40;99.90;;;;;;5342759;26;20335;-67
2024/04/21 01:35:42;;;;;;;5.38;1.42;;;4.30;99.90;;;;;;5344120;26;20301;-68
2024/04/21 01:38:08;;;;;;;4.13;1.48;;;4.20;99.90;;;;;;5346005;26;20225;-67
2024/04/21 01:40:34;;;;;;;3.72;1.52;;;3.90;99.90;;;;;;5339219;26;20371;-68
2024/04/21 01:42:59;;;;;;;2.10;1.00;;;3.80;99.90;;;;;;5349201;26;20328;-68
2024/04/21 01:45:25;;;;;;;1.25;1.00;;;3.60;99.90;;;;;;5331604;26;20247;-68
2024/04/21 01:47:51;;;;;;;5.50;1.15;;;3.40;99.90;;;;;;5347616;26;20230;-68
2024/04/21 01:50:17;;;;;;;2.70;1.42;;;3.30;99.90;;;;;;5352025;26;20285;-69
2024/04/21 01:52:42;;;;;;;2.67;1.40;;;3.30;99.90;;;;;;5339260;26;20262;-68
2024/04/21 01:55:08;;;;;;;2.60;1.20;;;3.20;99.90;;;;;;5366413;26;20587;-67
2024/04/21 01:57:35;;;;;;;3.38;1.40;;;3.20;99.90;;;;;;5346427;26;20583;-69
2024/04/21 02:00:02;;;;;;;3.72;1.52;;;3.10;99.90;;;;;;5351077;26;20636;-69
2024/04/21 02:02:38;;;;;;;5.65;1.80;;;3.00;99.90;;;;;;5351139;26;20226;-69
2024/04/21 02:05:04;;;;;;;2.55;1.38;;;2.90;99.90;;;;;;5339382;26;20347;-68
2024/04/21 02:07:29;;;;;;;3.47;1.23;;;2.90;99.90;;;;;;5343096;26;20230;-67
2024/04/21 02:09:55;;;;;;;2.00;1.30;;;2.80;99.90;;;;;;5338356;26;21672;-69
2024/04/21 02:12:21;;;;;;;3.95;1.33;;;2.80;99.90;;;;;;5338989;26;20469;-69
2024/04/21 02:14:46;;;;;;;1.90;1.27;;;2.80;99.90;;;;;;5348539;26;20230;-68
2024/04/21 02:17:12;;;;;;;2.65;1.08;;;2.80;99.90;;;;;;5353829;26;20709;-68
2024/04/21 02:19:38;;;;;;;3.75;1.23;;;2.80;99.90;;;;;;5343696;26;20242;-68
2024/04/21 02:22:04;;;;;;;4.20;1.40;;;2.80;99.90;;;;;;5339353;26;20247;-68
2024/04/21 02:24:39;;;;;;;3.83;1.23;;;2.80;99.90;;;;;;5401952;26;20256;-68
2024/04/21 02:27:05;;;;;;;3.88;1.20;;;2.70;99.90;;;;;;5343169;26;20281;-67
2024/04/21 02:29:30;;;;;;;4.85;1.35;;;2.70;99.90;;;;;;5336220;26;20226;-69
2024/04/21 02:31:56;;;;;;;2.85;1.40;;;2.70;99.90;;;;;;5347869;26;20635;-69
2024/04/21 02:34:22;;;;;;;5.53;1.30;;;2.70;99.90;;;;;;5334267;26;20301;-66
2024/04/21 02:36:47;;;;;;;6.43;1.40;;;2.70;99.90;;;;;;5338987;26;20275;-69
2024/04/21 02:39:13;;;;;;;6.10;1.77;;;2.70;99.90;;;;;;5340738;26;20271;-67
2024/04/21 02:41:39;;;;;;;5.82;1.80;;;2.70;99.90;;;;;;5344802;26;20599;-67
2024/04/21 02:44:04;;;;;;;6.15;1.45;;;2.60;99.90;;;;;;5396773;26;20246;-68
2024/04/21 02:46:30;;;;;;;10.80;2.03;;;2.70;99.90;;;;;;5348581;26;20277;-68
2024/04/21 02:48:56;;;;;;;12.85;2.13;;;2.60;99.90;;;;;;5340872;26;20241;-67
2024/04/21 02:51:21;;;;;;;8.63;1.70;;;2.60;99.90;;;;;;5339468;26;20230;-67
2024/04/21 02:53:47;;;;;;;10.10;2.20;;;2.60;99.90;;;;;;5345103;26;21200;-67
2024/04/21 02:56:13;;;;;;;6.32;1.70;;;2.70;99.90;;;;;;5398089;26;20267;-68
2024/04/21 02:58:38;;;;;;;10.88;2.28;;;2.70;99.90;;;;;;5347568;26;20280;-67
2024/04/21 03:01:05;;;;;;;6.47;1.73;;;2.70;99.90;;;;;;5348893;26;20829;-67
2024/04/21 03:03:30;;;;;;;11.88;2.53;;;2.70;99.90;;;;;;5403741;26;20226;-68
2024/04/21 03:05:57;;;;;;;9.35;2.03;;;2.70;99.90;;;;;;5344634;26;20281;-68
2024/04/21 03:08:24;;;;;;;6.20;2.20;;;2.70;99.90;;;;;;5343485;26;20246;-67
2024/04/21 03:10:50;;;;;;;7.40;2.35;;;2.70;99.90;;;;;;5347547;26;20277;-68
2024/04/21 03:13:16;;;;;;;11.93;2.67;;;2.70;99.90;;;;;;5342083;26;20591;-68
2024/04/21 03:15:42;;;;;;;8.65;1.98;;;2.70;99.90;;;;;;5343110;26;20315;-67
2024/04/21 03:18:07;;;;;;;5.65;2.03;;;2.70;99.90;;;;;;5344031;26;20730;-67
2024/04/21 03:20:33;;;;;;;10.75;2.30;;;2.70;99.90;;;;;;5398783;26;20230;-67
2024/04/21 03:22:59;;;;;;;16.90;2.42;;;2.70;99.90;;;;;;5400277;26;20238;-68
2024/04/21 03:25:25;;;;;;;12.30;2.47;;;2.70;99.90;;;;;;5396925;26;20234;-67
2024/04/21 03:27:50;;;;;;;12.48;2.95;;;2.70;99.90;;;;;;5345118;26;20298;-68
2024/04/21 03:30:16;;;;;;;12.90;2.50;;;2.80;99.90;;;;;;5339596;26;20234;-68
2024/04/21 03:32:42;;;;;;;9.50;2.70;;;2.80;99.90;;;;;;5340134;26;20418;-67
2024/04/21 03:35:08;;;;;;;12.00;2.15;;;2.80;99.90;;;;;;5352413;26;20299;-66
2024/04/21 03:37:34;;;;;;;17.52;2.83;;;2.80;99.90;;;;;;5343436;26;20280;-67
2024/04/21 03:40:03;;;;;;;12.15;2.75;;;2.80;99.90;;;;;;5347730;26;20229;-66
2024/04/21 03:42:29;;;;;;;12.60;2.60;;;2.80;99.90;;;;;;5343617;26;20281;-67
2024/04/21 03:44:55;;;;;;;10.85;2.20;;;2.80;99.90;;;;;;5347758;26;20649;-66
2024/04/21 03:47:21;;;;;;;18.08;2.50;;;2.80;99.90;;;;;;5346543;26;20231;-67
2024/04/21 03:49:47;;;;;;;12.82;2.17;;;2.80;99.90;;;;;;5341136;26;20820;-67
2024/04/21 03:52:13;;;;;;;14.65;2.42;;;2.80;99.90;;;;;;5351563;26;20237;-67
2024/04/21 03:54:38;;;;;;;9.20;2.35;;;2.90;99.90;;;;;;5346800;26;20227;-68
2024/04/21 03:57:05;;;;;;;11.02;2.30;;;2.90;99.90;;;;;;5341634;26;20250;-68
2024/04/21 03:59:31;;;;;;;10.65;2.47;;;2.80;99.90;;;;;;5342638;26;20613;-66
2024/04/21 04:01:57;;;;;;;12.80;2.63;;;2.90;99.90;;;;;;5346946;26;20230;-67
2024/04/21 04:04:23;;;;;;;14.25;2.50;;;2.90;99.90;;;;;;5407726;26;20343;-67
2024/04/21 04:06:48;;;;;;;12.02;2.50;;;2.90;99.90;;;;;;5345223;26;20296;-67
2024/04/21 04:09:14;;;;;;;11.32;2.17;;;2.90;99.90;;;;;;5345851;26;20642;-68
2024/04/21 04:11:40;;;;;;;10.45;2.33;;;2.90;99.90;;;;;;5345865;26;20230;-66
2024/04/21 04:14:05;;;;;;;10.65;2.80;;;2.90;99.90;;;;;;5347775;26;20229;-67
2024/04/21 04:16:31;;;;;;;16.23;2.72;;;2.90;99.90;;;;;;5351089;26;20226;-68
2024/04/21 04:18:57;;;;;;;15.95;2.75;;;2.90;99.90;;;;;;5341493;26;20277;-66
2024/04/21 04:21:23;;;;;;;12.90;2.33;;;2.90;99.90;;;;;;5372572;26;20233;-66
2024/04/21 04:23:48;;;;;;;14.48;3.08;;;2.90;99.90;;;;;;5298683;26;21239;-66
2024/04/21 04:26:14;;;;;;;12.55;2.67;;;2.90;99.90;;;;;;5350780;26;20621;-68
2024/04/21 04:28:40;;;;;;;11.82;3.03;;;2.90;99.90;;;;;;5402438;26;20266;-68
2024/04/21 04:31:05;;;;;;;10.05;2.42;;;3.00;99.90;;;;;;5343151;26;20222;-68
2024/04/21 04:33:31;;;;;;;11.20;2.70;;;3.00;99.90;;;;;;5343025;26;20230;-68
2024/04/21 04:35:57;;;;;;;13.63;3.15;;;3.00;99.90;;;;;;5349230;26;20246;-68
2024/04/21 04:38:22;;;;;;;13.02;2.80;;;3.00;99.90;;;;;;5352615;26;20356;-67
2024/04/21 04:40:48;;;;;;;12.05;2.75;;;3.00;99.90;;;;;;5345755;26;20280;-67
2024/04/21 04:43:14;;;;;;;12.68;3.10;;;3.00;99.90;;;;;;5352158;26;21950;-68
2024/04/21 04:45:39;;;;;;;13.27;2.83;;;3.00;99.90;;;;;;5347508;26;20290;-69
2024/04/21 04:48:05;;;;;;;18.45;2.88;;;3.00;99.90;;;;;;5346976;26;20235;-65
2024/04/21 04:50:31;;;;;;;12.25;3.05;;;3.10;99.90;;;;;;5346285;26;21579;-66
2024/04/21 04:52:57;;;;;;;13.65;2.80;;;3.10;99.90;;;;;;5352566;26;20239;-67
2024/04/21 04:55:25;;;;;;;17.30;2.92;;;3.10;99.90;;;;;;5347462;26;20234;-67
2024/04/21 04:57:51;;;;;;;13.43;2.60;;;3.10;99.90;;;;;;5352818;26;20238;-68
2024/04/21 05:00:16;;;;;;;14.35;2.70;;;3.10;99.90;;;;;;5349660;26;20318;-67
2024/04/21 05:02:42;;;;;;;11.52;2.60;;;3.10;99.90;;;;;;5352773;26;20340;-67
2024/04/21 05:05:08;;;;;;;17.27;2.60;;;3.20;99.90;;;;;;5354876;26;20254;-67
2024/04/21 05:07:34;;;;;;;13.70;2.47;;;3.20;99.90;;;;;;5354366;26;20346;-67
2024/04/21 05:10:00;;;;;;;16.45;2.45;;;3.20;99.90;;;;;;5347678;26;20298;-67
2024/04/21 05:12:26;;;;;;;16.83;2.78;;;3.30;99.90;;;;;;5353418;26;20245;-67
2024/04/21 05:14:52;;;;;;;13.65;2.45;;;3.30;99.90;;;;;;5350347;26;20239;-66
2024/04/21 05:17:17;;;;;;;12.27;3.03;;;3.40;99.90;;;;;;5350406;26;20280;-67
2024/04/21 05:19:43;;;;;;;10.82;2.67;;;3.40;99.90;;;;;;5350052;26;20958;-67
2024/04/21 05:22:09;;;;;;;8.18;2.47;;;3.40;99.90;;;;;;5348874;26;20225;-67
2024/04/21 05:24:34;;;;;;;13.57;2.50;;;3.50;99.90;;;;;;5382863;26;20280;-66
2024/04/21 05:27:02;;;;;;;13.63;2.70;;;3.50;99.90;;;;;;5354278;26;20238;-66
2024/04/21 05:29:28;;;;;;;12.80;2.35;;;3.60;99.90;;;;;;5354127;26;20761;-67
2024/04/21 05:31:54;;;;;;;15.07;2.42;;;3.60;99.90;;;;;;5357777;26;20345;-68
2024/04/21 05:34:19;;;;;;;15.50;2.65;;;3.70;99.90;;;;;;5349729;26;20250;-67
2024/04/21 05:36:45;;;;;;;13.38;2.72;;;3.70;99.90;;;;;;5355168;26;20229;-67
2024/04/21 05:39:11;;;;;;;14.32;2.60;;;3.80;99.90;;;;;;5349826;26;20237;-66
2024/04/21 05:41:37;;;;;;;15.27;2.80;;;3.80;99.90;;;;;;5346880;26;20238;-69
2024/04/21 05:44:03;;;;;;;10.45;2.35;;;3.90;99.90;;;;;;5349598;26;20282;-67
2024/04/21 05:46:29;;;;;;;14.13;3.03;;;3.90;99.90;;;;;;5355815;26;20829;-66
2024/04/21 05:48:55;;;;;;;11.82;2.70;;;4.00;99.90;;;;;;5345551;26;20246;-66
2024/04/21 05:51:20;;;;;;;19.27;2.70;;;4.00;99.90;;;;;;5352274;26;20235;-66
2024/04/21 05:53:46;;;;;;;13.75;2.83;;;4.10;99.90;;;;;;5353859;26;20294;-65
2024/04/21 05:56:12;;;;;;;10.30;2.72;;;4.20;99.90;;;;;;5347941;26;20313;-65
2024/04/21 05:58:37;;;;;;;18.05;3.25;;;4.20;99.90;;;;;;5349883;26;21526;-65
2024/04/21 06:01:03;;;;;;;12.52;2.90;;;4.20;99.90;;;;;;5350253;26;20237;-68
2024/04/21 06:03:29;;;;;;;10.82;2.70;;;4.30;99.90;;;;;;5343801;26;20292;-65
2024/04/21 06:05:54;;;;;;;14.73;2.58;;;4.40;99.90;;;;;;5358501;26;20280;-66
2024/04/21 06:08:20;;;;;;;20.38;3.10;;;4.40;99.90;;;;;;5354265;26;20280;-67
2024/04/21 06:10:46;;;;;;;13.57;2.50;;;4.40;99.90;;;;;;5347497;26;20888;-66
2024/04/21 06:13:12;;;;;;;15.40;2.90;;;4.50;99.90;;;;;;5355659;26;20222;-67
2024/04/21 06:15:38;;;;;;;13.02;2.88;;;4.60;99.90;;;;;;5348913;26;20238;-68
2024/04/21 06:18:04;;;;;;;14.75;2.63;;;4.60;99.90;;;;;;5351975;26;20280;-68
2024/04/21 06:20:33;;;;;;;15.50;3.00;;;4.60;99.90;;;;;;5346185;26;20252;-67
2024/04/21 06:22:59;;;;;;;11.98;2.65;;;4.70;99.90;;;;;;5353711;26;20342;-68
2024/04/21 06:25:25;;;;;;;16.15;3.17;;;4.80;99.90;;;;;;5354136;26;20226;-66
2024/04/21 06:27:50;;;;;;;16.25;3.13;;;4.80;99.90;;;;;;5351159;26;20338;-67
2024/04/21 06:30:16;;;;;;;13.05;2.50;;;4.80;99.90;;;;;;5410944;26;20246;-67
2024/04/21 06:32:42;;;;;;;13.23;2.88;;;4.80;99.90;;;;;;5406191;26;20242;-66
2024/04/21 06:35:08;;;;;;;10.77;2.38;;;4.90;99.90;;;;;;5353344;26;20375;-66
2024/04/21 06:37:34;;;;;;;13.52;2.40;;;5.00;99.90;;;;;;5352266;26;20335;-69
2024/04/21 06:40:00;;;;;;;14.40;2.67;;;5.10;99.90;;;;;;5347401;26;20779;-67
2024/04/21 06:42:26;;;;;;;7.15;1.98;;;5.10;99.90;;;;;;5350238;26;20237;-67
2024/04/21 06:44:51;;;;;;;9.45;2.58;;;5.20;99.90;;;;;;5349656;26;20292;-67
2024/04/21 06:47:17;;;;;;;11.02;2.63;;;5.30;99.90;;;;;;5406156;26;20770;-67
2024/04/21 06:49:43;;;;;;;11.18;2.67;;;5.40;99.90;;;;;;5350358;26;20726;-66
2024/04/21 06:52:08;;;;;;;11.40;2.42;;;5.50;99.90;;;;;;5345334;26;20237;-69
2024/04/21 06:54:34;;;;;;;11.60;3.17;;;5.60;99.90;;;;;;5348968;26;20663;-68
2024/04/21 06:57:00;;;;;;;10.13;2.58;;;5.60;99.90;;;;;;5346130;26;22800;-68
2024/04/21 06:59:26;;;;;;;12.18;2.80;;;5.70;99.90;;;;;;5349594;26;20719;-68
2024/04/21 07:01:51;;;;;;;8.38;2.83;;;5.80;99.90;;;;;;5355350;26;20235;-66
2024/04/21 07:04:18;;;;;;;7.03;3.05;;;5.80;99.90;;;;;;5348090;26;20680;-66
2024/04/21 07:06:44;;;;;;;11.57;3.05;;;5.90;99.90;;;;;;5356258;26;20358;-67
2024/04/21 07:09:09;;;;;;;8.40;2.88;;;6.00;99.90;;;;;;5349501;26;20246;-66
2024/04/21 07:11:35;;;;;;;6.28;2.97;;;6.10;99.90;;;;;;5346368;26;20273;-68
2024/04/21 07:14:01;;;;;;;7.45;2.97;;;6.10;99.90;;;;;;5350127;26;20720;-66
2024/04/21 07:16:26;;;;;;;12.90;3.28;;;6.20;99.90;;;;;;5354221;26;20237;-66
2024/04/21 07:18:52;;;;;;;7.22;2.80;;;6.30;99.90;;;;;;5353056;26;20352;-68
2024/04/21 07:21:18;;;;;;;5.53;2.50;;;6.40;99.90;;;;;;5357347;26;20345;-68
2024/04/21 07:23:44;;;;;;;9.18;3.00;;;6.40;99.90;;;;;;5351444;26;20650;-67
2024/04/21 07:26:09;;;;;;;8.15;2.67;;;6.50;99.90;;;;;;5355120;26;21129;-66
2024/04/21 07:28:35;;;;;;;7.40;2.92;;;6.60;99.90;;;;;;5352661;26;20256;-67
2024/04/21 07:31:01;;;;;;;7.75;2.83;;;6.70;99.90;;;;;;5354423;26;20718;-66
2024/04/21 07:33:27;;;;;;;4.32;2.92;;;6.80;99.90;;;;;;5355556;26;20238;-66
2024/04/21 07:35:52;;;;;;;7.25;3.22;;;6.80;99.90;;;;;;5357030;26;20688;-67
2024/04/21 07:38:18;;;;;;;7.03;3.42;;;6.90;99.90;;;;;;5412924;26;20276;-67
2024/04/21 07:40:44;;;;;;;6.35;3.55;;;6.90;99.90;;;;;;5353341;26;20234;-66
2024/04/21 07:43:11;;;;;;;10.73;5.22;;;7.00;99.90;;;;;;5352312;26;21187;-67
2024/04/21 07:45:37;;;;;;;7.28;3.22;;;7.00;99.90;;;;;;5355967;26;20289;-67
2024/04/21 07:48:03;;;;;;;7.65;3.40;;;7.10;99.90;;;;;;5355763;26;20286;-67
2024/04/21 07:50:32;;;;;;;6.18;3.70;;;7.20;99.90;;;;;;5346446;26;20763;-68
2024/04/21 07:52:58;;;;;;;6.53;3.38;;;7.30;99.90;;;;;;5351554;26;20235;-65
2024/04/21 07:55:24;;;;;;;7.38;3.40;;;7.40;99.90;;;;;;5354948;26;20234;-67
2024/04/21 07:57:50;;;;;;;8.93;4.30;;;7.40;99.90;;;;;;5350563;26;20284;-68
2024/04/21 08:00:18;;;;;;;6.88;3.60;;;7.40;99.90;;;;;;5350605;26;20242;-66
2024/04/21 08:02:44;;;;;;;5.82;3.65;;;7.50;99.90;;;;;;5352534;26;20234;-68
2024/04/21 08:05:10;;;;;;;5.57;3.60;;;7.50;99.90;;;;;;5348787;26;20227;-67
2024/04/21 08:07:36;;;;;;;6.90;3.60;;;7.60;99.90;;;;;;5351136;26;20275;-67
2024/04/21 08:10:03;;;;;;;7.25;3.42;;;7.70;99.90;;;;;;5351936;26;20314;-67
2024/04/21 08:12:28;;;;;;;4.55;3.10;;;7.70;99.90;;;;;;5356058;26;20764;-67
2024/04/21 08:14:54;;;;;;;7.05;3.70;;;7.90;99.90;;;;;;5359401;26;20234;-67
2024/04/21 08:17:20;;;;;;;10.00;5.40;;;8.00;99.90;;;;;;5354798;26;20266;-68
2024/04/21 08:19:46;;;;;;;10.20;5.53;;;8.10;99.90;;;;;;5405872;26;21470;-68
2024/04/21 08:22:11;;;;;;;6.45;3.90;;;8.10;99.90;;;;;;5355380;26;20276;-66
2024/04/21 08:24:38;;;;;;;6.75;3.20;;;8.20;99.90;;;;;;5354033;26;20239;-67
2024/04/21 08:27:04;;;;;;;5.60;3.30;;;8.30;99.90;;;;;;5347594;26;20730;-66
2024/04/21 08:29:31;;;;;;;4.72;2.97;;;8.30;99.90;;;;;;5354327;26;20315;-67
2024/04/21 08:31:56;;;;;;;5.15;3.03;;;8.30;99.90;;;;;;5412215;26;20302;-67
2024/04/21 08:34:22;;;;;;;7.13;3.38;;;8.30;99.90;;;;;;5351292;26;20276;-67
2024/04/21 08:36:49;;;;;;;3.80;2.83;;;8.40;99.90;;;;;;5355176;26;20249;-67
2024/04/21 08:39:15;;;;;;;3.78;2.50;;;8.50;99.90;;;;;;5382111;26;20360;-67
2024/04/21 08:41:41;;;;;;;5.28;3.08;;;8.60;99.90;;;;;;5348795;26;20397;-68
2024/04/21 08:44:11;;;;;;;4.20;2.90;;;8.60;99.90;;;;;;5347411;26;20233;-67
2024/04/21 08:46:37;;;;;;;5.00;3.30;;;8.70;99.90;;;;;;5366539;26;20302;-67
2024/04/21 08:49:05;;;;;;;6.45;3.20;;;8.70;99.90;;;;;;5349105;26;20229;-67
2024/04/21 08:51:34;;;;;;;7.32;3.05;;;8.80;99.90;;;;;;5351159;26;20245;-66
2024/04/21 08:54:00;;;;;;;5.10;2.65;;;8.90;99.90;;;;;;5350901;26;20317;-67
2024/04/21 08:56:29;;;;;;;4.47;2.80;;;9.10;99.90;;;;;;5347170;26;20362;-67
2024/04/21 08:58:55;;;;;;;4.45;2.60;;;9.20;99.90;;;;;;5353989;26;20235;-66
2024/04/21 09:01:22;;;;;;;3.70;2.45;;;9.40;99.90;;;;;;5355442;26;20234;-67
2024/04/21 09:03:50;;;;;;;4.53;2.33;;;9.50;99.90;;;;;;5354220;26;20230;-67
2024/04/21 09:06:16;;;;;;;3.05;2.22;;;9.40;99.90;;;;;;5352779;26;20241;-68
2024/04/21 09:08:42;;;;;;;3.15;2.65;;;9.40;99.90;;;;;;5356083;26;20233;-66
2024/04/21 09:11:09;;;;;;;3.33;2.20;;;9.40;99.90;;;;;;5351334;26;20242;-67
2024/04/21 09:13:34;;;;;;;3.08;2.22;;;9.40;99.90;;;;;;5351787;26;20229;-67
2024/04/21 09:16:01;;;;;;;3.85;2.53;;;9.50;99.90;;;;;;5355034;26;20268;-69
2024/04/21 09:18:27;;;;;;;3.58;2.20;;;9.50;99.90;;;;;;5356426;26;20305;-68
2024/04/21 09:20:53;;;;;;;3.25;2.05;;;9.50;99.90;;;;;;5321429;26;20233;-67
2024/04/21 09:23:19;;;;;;;4.53;2.58;;;9.50;99.90;;;;;;5407751;26;20234;-66
2024/04/21 09:25:44;;;;;;;5.38;2.78;;;9.60;99.90;;;;;;5351106;26;20306;-67
2024/04/21 09:28:10;;;;;;;4.72;2.40;;;9.60;99.90;;;;;;5354073;26;20731;-67
2024/04/21 09:30:36;;;;;;;4.80;2.30;;;9.70;99.90;;;;;;5346924;26;20285;-67
2024/04/21 09:33:04;;;;;;;4.28;2.30;;;9.90;99.90;;;;;;5355680;26;20329;-66
2024/04/21 09:35:30;;;;;;;4.18;2.15;;;10.10;99.90;;;;;;5351305;26;20242;-66
2024/04/21 09:37:56;;;;;;;5.57;2.50;;;10.20;99.90;;;;;;5347843;26;20368;-66
2024/04/21 09:40:23;;;;;;;3.65;2.28;;;10.40;99.90;;;;;;5349386;26;20769;-67
2024/04/21 09:42:50;;;;;;;3.13;2.45;;;10.50;99.90;;;;;;5353317;26;20290;-66
2024/04/21 09:45:17;;;;;;;3.65;2.40;;;10.70;99.90;;;;;;5410739;26;20234;-67
2024/04/21 09:47:44;;;;;;;3.33;2.17;;;10.80;99.90;;;;;;5352106;26;20277;-66
2024/04/21 09:50:12;;;;;;;2.80;2.00;;;10.90;99.90;;;;;;5352881;26;20662;-66
2024/04/21 09:52:38;;;;;;;3.20;2.00;;;11.20;99.90;;;;;;5354227;26;21616;-67
2024/04/21 09:55:05;;;;;;;3.53;2.65;;;11.40;99.90;;;;;;5351235;26;20241;-66
2024/04/21 09:57:36;;;;;;;2.60;2.28;;;11.50;99.90;;;;;;5353650;26;20231;-68
2024/04/21 10:00:05;;;;;;;3.47;2.20;;;11.50;99.90;;;;;;5348741;26;20277;-67
2024/04/21 10:02:45;;;;;;;3.25;2.10;;;11.70;99.90;;;;;;5353665;26;20313;-67
2024/04/21 10:05:15;;;;;;;4.28;2.10;;;11.90;99.90;;;;;;5353033;26;20412;-67
2024/04/21 10:07:43;;;;;;;4.32;2.60;;;11.90;99.90;;;;;;5353902;26;20243;-67
2024/04/21 10:10:09;;;;;;;4.75;2.13;;;12.10;99.90;;;;;;5351032;26;20237;-67
2024/04/21 10:12:35;;;;;;;5.60;2.50;;;12.10;99.90;;;;;;5355263;26;20359;-66
2024/04/21 10:15:02;;;;;;;3.00;2.08;;;12.20;99.90;;;;;;5350677;26;20233;-66
2024/04/21 10:17:28;;;;;;;4.47;2.10;;;12.20;99.90;;;;;;5354791;26;20230;-67
2024/04/21 10:20:02;;;;;;;4.32;1.85;;;12.20;99.90;;;;;;5351011;26;20242;-68
2024/04/21 10:22:28;;;;;;;1.83;1.50;;;12.10;99.90;;;;;;5361647;26;20252;-68
2024/04/21 10:24:55;;;;;;;2.10;1.50;;;12.10;99.90;;;;;;5350221;26;20283;-69
2024/04/21 10:27:22;;;;;;;3.00;1.60;;;11.90;99.90;;;;;;5354482;26;20368;-67
2024/04/21 10:29:48;;;;;;;2.97;1.90;;;11.80;99.90;;;;;;5346153;26;20310;-66
2024/04/21 10:32:27;;;;;;;3.08;1.90;;;11.70;99.90;;;;;;5353536;26;20241;-69
2024/04/21 10:34:56;;;;;;;2.70;1.80;;;11.70;99.90;;;;;;5343411;26;20230;-68
2024/04/21 10:37:26;;;;;;;2.42;2.00;;;11.70;99.90;;;;;;5351587;26;20384;-68
2024/04/21 10:40:04;;;;;;;3.65;1.88;;;11.60;99.90;;;;;;5349413;26;20769;-67
2024/04/21 10:42:33;;;;;;;4.25;1.98;;;11.60;99.90;;;;;;5351033;26;20741;-67
2024/04/21 10:45:00;;;;;;;3.00;2.05;;;11.50;99.90;;;;;;5350940;26;20246;-68
2024/04/21 10:47:26;;;;;;;3.28;1.80;;;11.50;99.90;;;;;;5342647;26;20234;-67
2024/04/21 10:49:53;;;;;;;3.50;1.75;;;11.50;99.90;;;;;;5352504;26;20242;-67
2024/04/21 10:52:18;;;;;;;4.32;2.10;;;11.40;99.90;;;;;;5349636;26;20281;-67
2024/04/21 10:54:44;;;;;;;4.88;2.05;;;11.50;99.90;;;;;;5351457;26;20232;-68
2024/04/21 10:57:10;;;;;;;3.00;1.85;;;11.60;99.90;;;;;;5353709;26;20326;-68
2024/04/21 10:59:36;;;;;;;4.68;2.30;;;11.70;99.90;;;;;;5358211;26;20264;-68
2024/04/21 11:02:02;;;;;;;4.70;1.80;;;11.80;99.90;;;;;;5351879;26;20230;-69
2024/04/21 11:04:28;;;;;;;3.03;1.70;;;11.80;99.90;;;;;;5351106;26;20297;-68
2024/04/21 11:06:55;;;;;;;3.35;2.20;;;11.70;99.90;;;;;;5352916;26;20344;-67
2024/04/21 11:09:21;;;;;;;3.85;1.95;;;11.70;99.90;;;;;;5348715;26;20234;-69
2024/04/21 11:11:47;;;;;;;4.68;1.80;;;11.70;99.90;;;;;;5356028;26;20705;-68
2024/04/21 11:14:13;;;;;;;2.50;1.77;;;11.70;99.90;;;;;;5358550;26;20238;-68
2024/04/21 11:16:39;;;;;;;3.13;2.00;;;11.60;99.90;;;;;;5354753;26;20268;-68
2024/04/21 11:19:05;;;;;;;3.53;1.95;;;11.40;99.90;;;;;;5357980;26;20225;-68
2024/04/21 11:21:32;;;;;;;6.00;2.20;;;11.30;99.90;;;;;;5357363;26;20230;-68
2024/04/21 11:23:58;;;;;;;6.80;2.47;;;11.20;99.90;;;;;;5351974;26;20242;-68
2024/04/21 11:26:26;;;;;;;3.63;2.25;;;11.20;99.90;;;;;;5355609;26;20231;-68
2024/04/21 11:28:51;;;;;;;3.35;1.77;;;11.10;99.90;;;;;;5350355;26;20231;-67
2024/04/21 11:31:17;;;;;;;4.22;2.28;;;11.10;99.90;;;;;;5355928;26;20267;-67
2024/04/21 11:33:43;;;;;;;7.60;2.30;;;11.00;99.90;;;;;;5346071;26;20310;-68
2024/04/21 11:36:12;;;;;;;6.32;4.30;;;11.10;99.90;;;;;;5351943;26;20242;-67
2024/04/21 11:38:38;;;;;;;5.18;2.35;;;11.20;99.90;;;;;;5345508;26;20576;-66
2024/04/21 11:41:03;;;;;;;4.13;2.30;;;11.30;99.90;;;;;;5350589;26;20283;-68
2024/04/21 11:43:30;;;;;;;3.65;2.38;;;11.40;99.90;;;;;;5356270;26;20293;-67
2024/04/21 11:46:03;;;;;;;3.65;2.10;;;11.50;99.90;;;;;;5351666;26;20272;-68
2024/04/21 11:48:32;;;;;;;3.05;1.80;;;11.70;99.90;;;;;;5355474;26;20306;-67
2024/04/21 11:50:59;;;;;;;2.28;1.90;;;11.80;99.90;;;;;;5349763;26;20260;-67
2024/04/21 11:53:25;;;;;;;2.70;2.05;;;11.80;99.90;;;;;;5352824;26;20241;-67
2024/04/21 11:55:51;;;;;;;2.50;1.70;;;11.90;99.90;;;;;;5350391;26;21754;-67
2024/04/21 11:58:16;;;;;;;2.20;2.00;;;12.00;99.90;;;;;;5353151;26;20234;-68
2024/04/21 12:00:42;;;;;;;2.75;1.95;;;12.00;99.90;;;;;;5351844;26;20233;-69
2024/04/21 12:03:08;;;;;;;2.92;1.90;;;12.00;99.90;;;;;;5352054;26;20262;-67
2024/04/21 12:05:34;;;;;;;3.80;2.90;;;11.90;99.90;;;;;;5405263;26;20265;-67
2024/04/21 12:08:00;;;;;;;3.78;2.42;;;11.90;99.90;;;;;;5351738;26;20803;-68
2024/04/21 12:10:25;;;;;;;5.47;2.50;;;11.70;99.90;;;;;;5346812;26;20246;-68
2024/04/21 12:12:51;;;;;;;4.53;2.58;;;11.40;99.90;;;;;;5345793;26;20238;-68
2024/04/21 12:15:17;;;;;;;5.60;2.88;;;11.10;99.90;;;;;;5358671;26;20227;-68
2024/04/21 12:17:43;;;;;;;5.63;2.83;;;10.90;99.90;;;;;;5349741;26;20356;-68
2024/04/21 12:20:09;;;;;;;5.82;3.63;;;10.80;99.90;;;;;;5349987;26;20237;-68
2024/04/21 12:22:34;;;;;;;5.40;2.72;;;10.90;99.90;;;;;;5353904;26;20311;-67
2024/04/21 12:25:00;;;;;;;3.95;2.70;;;11.00;99.90;;;;;;5349740;26;20306;-67
2024/04/21 12:27:26;;;;;;;6.80;2.85;;;11.20;99.90;;;;;;5353767;26;20229;-68
2024/04/21 12:29:52;;;;;;;4.10;2.80;;;11.40;99.90;;;;;;5356188;26;20234;-68
2024/04/21 12:32:17;;;;;;;5.78;2.40;;;11.60;99.90;;;;;;5353015;26;20238;-67
2024/04/21 12:34:43;;;;;;;6.25;2.78;;;11.50;99.90;;;;;;5357458;26;20546;-68
2024/04/21 12:37:09;;;;;;;4.63;3.15;;;11.40;99.90;;;;;;5350506;26;20793;-67
2024/04/21 12:39:35;;;;;;;5.15;3.20;;;11.30;99.90;;;;;;5411101;26;20223;-67
2024/04/21 12:42:02;;;;;;;3.63;2.92;;;11.30;99.90;;;;;;5356452;26;20278;-66
2024/04/21 12:44:27;;;;;;;4.65;2.90;;;11.20;99.90;;;;;;5351176;26;20265;-67